sensor_id;sensor_type;location;lat;lon;timestamp;P1;durP1;ratioP1;P2;durP2;ratioP2
70560;SDS011;58109;53.570;10.084;2024-03-23T00:55:00;47.30;;;6.20;;
70560;SDS011;58109;53.570;10.084;2024-03-23T00:57:25;31.07;;;4.90;;
70560;SDS011;58109;53.570;10.084;2024-03-23T00:59:51;40.50;;;5.30;;
70560;SDS011;58109;53.570;10.084;2024-03-23T01:02:19;44.03;;;6.13;;
70560;SDS011;58109;53.570;10.084;2024-03-23T01:04:44;48.57;;;5.97;;
70560;SDS011;58109;53.570;10.084;2024-03-23T01:07:09;48.07;;;6.40;;
70560;SDS011;58109;53.570;10.084;2024-03-23T01:09:37;46.03;;;5.77;;
70560;SDS011;58109;53.570;10.084;2024-03-23T01:12:03;51.97;;;5.87;;
70560;SDS011;58109;53.570;10.084;2024-03-23T01:14:29;43.43;;;4.67;;
70560;SDS011;58109;53.570;10.084;2024-03-23T01:16:55;46.97;;;5.90;;
70560;SDS011;58109;53.570;10.084;2024-03-23T01:19:22;38.80;;;5.83;;
70560;SDS011;58109;53.570;10.084;2024-03-23T01:21:48;40.83;;;5.60;;
70560;SDS011;58109;53.570;10.084;2024-03-23T01:24:14;39.50;;;6.10;;
70560;SDS011;58109;53.570;10.084;2024-03-23T01:26:39;38.83;;;5.50;;
70560;SDS011;58109;53.570;10.084;2024-03-23T01:29:05;44.07;;;5.17;;
70560;SDS011;58109;53.570;10.084;2024-03-23T01:31:30;52.60;;;5.90;;
70560;SDS011;58109;53.570;10.084;2024-03-23T01:33:56;49.40;;;6.10;;
70560;SDS011;58109;53.570;10.084;2024-03-23T01:36:21;36.53;;;5.07;;
70560;SDS011;58109;53.570;10.084;2024-03-23T01:38:46;49.30;;;4.90;;
70560;SDS011;58109;53.570;10.084;2024-03-23T01:41:12;50.57;;;5.27;;
70560;SDS011;58109;53.570;10.084;2024-03-23T01:43:40;38.90;;;5.60;;
70560;SDS011;58109;53.570;10.084;2024-03-23T01:46:07;53.77;;;4.87;;
70560;SDS011;58109;53.570;10.084;2024-03-23T01:48:33;52.10;;;5.97;;
70560;SDS011;58109;53.570;10.084;2024-03-23T01:50:58;37.90;;;5.00;;
70560;SDS011;58109;53.570;10.084;2024-03-23T01:53:24;39.30;;;5.40;;
70560;SDS011;58109;53.570;10.084;2024-03-23T01:55:50;48.53;;;5.63;;
70560;SDS011;58109;53.570;10.084;2024-03-23T01:58:16;31.73;;;4.30;;
70560;SDS011;58109;53.570;10.084;2024-03-23T02:00:42;42.17;;;4.97;;
70560;SDS011;58109;53.570;10.084;2024-03-23T02:03:28;44.13;;;5.20;;
70560;SDS011;58109;53.570;10.084;2024-03-23T02:05:53;41.73;;;6.00;;
70560;SDS011;58109;53.570;10.084;2024-03-23T02:08:22;35.90;;;5.70;;
70560;SDS011;58109;53.570;10.084;2024-03-23T02:10:51;43.43;;;5.70;;
70560;SDS011;58109;53.570;10.084;2024-03-23T02:13:19;36.53;;;4.73;;
70560;SDS011;58109;53.570;10.084;2024-03-23T02:15:44;48.27;;;6.00;;
70560;SDS011;58109;53.570;10.084;2024-03-23T02:18:10;32.70;;;5.40;;
70560;SDS011;58109;53.570;10.084;2024-03-23T02:20:35;31.80;;;5.50;;
70560;SDS011;58109;53.570;10.084;2024-03-23T02:23:01;54.77;;;5.30;;
70560;SDS011;58109;53.570;10.084;2024-03-23T02:25:33;36.03;;;5.27;;
70560;SDS011;58109;53.570;10.084;2024-03-23T02:27:59;42.53;;;6.20;;
70560;SDS011;58109;53.570;10.084;2024-03-23T02:30:25;38.33;;;6.40;;
70560;SDS011;58109;53.570;10.084;2024-03-23T02:32:51;43.17;;;5.80;;
70560;SDS011;58109;53.570;10.084;2024-03-23T02:35:18;44.07;;;6.63;;
70560;SDS011;58109;53.570;10.084;2024-03-23T02:37:45;39.73;;;6.80;;
70560;SDS011;58109;53.570;10.084;2024-03-23T02:40:11;34.67;;;6.30;;
70560;SDS011;58109;53.570;10.084;2024-03-23T02:42:36;36.40;;;5.90;;
70560;SDS011;58109;53.570;10.084;2024-03-23T02:45:02;41.90;;;5.60;;
70560;SDS011;58109;53.570;10.084;2024-03-23T02:47:29;47.93;;;6.40;;
70560;SDS011;58109;53.570;10.084;2024-03-23T02:49:55;44.30;;;5.20;;
70560;SDS011;58109;53.570;10.084;2024-03-23T02:52:20;33.30;;;5.93;;
70560;SDS011;58109;53.570;10.084;2024-03-23T02:54:46;52.10;;;6.30;;
70560;SDS011;58109;53.570;10.084;2024-03-23T02:57:11;39.73;;;6.73;;
70560;SDS011;58109;53.570;10.084;2024-03-23T02:59:37;34.43;;;4.77;;
70560;SDS011;58109;53.570;10.084;2024-03-23T03:02:02;34.63;;;4.60;;
70560;SDS011;58109;53.570;10.084;2024-03-23T03:04:30;33.93;;;5.10;;
70560;SDS011;58109;53.570;10.084;2024-03-23T03:06:58;31.57;;;4.00;;
70560;SDS011;58109;53.570;10.084;2024-03-23T03:09:23;48.33;;;5.13;;
70560;SDS011;58109;53.570;10.084;2024-03-23T03:11:49;41.57;;;5.70;;
70560;SDS011;58109;53.570;10.084;2024-03-23T03:14:14;44.93;;;5.50;;
70560;SDS011;58109;53.570;10.084;2024-03-23T03:16:39;34.63;;;5.60;;
70560;SDS011;58109;53.570;10.084;2024-03-23T03:19:05;46.47;;;5.77;;
70560;SDS011;58109;53.570;10.084;2024-03-23T03:21:31;40.13;;;5.40;;
70560;SDS011;58109;53.570;10.084;2024-03-23T03:23:57;50.93;;;5.87;;
70560;SDS011;58109;53.570;10.084;2024-03-23T03:26:23;35.33;;;5.10;;
70560;SDS011;58109;53.570;10.084;2024-03-23T03:28:51;27.43;;;5.43;;
70560;SDS011;58109;53.570;10.084;2024-03-23T03:31:16;32.90;;;4.90;;
70560;SDS011;58109;53.570;10.084;2024-03-23T03:33:42;41.77;;;4.90;;
70560;SDS011;58109;53.570;10.084;2024-03-23T03:36:08;32.47;;;4.97;;
70560;SDS011;58109;53.570;10.084;2024-03-23T03:38:33;30.43;;;5.60;;
70560;SDS011;58109;53.570;10.084;2024-03-23T03:41:02;36.53;;;4.80;;
70560;SDS011;58109;53.570;10.084;2024-03-23T03:43:27;40.73;;;5.33;;
70560;SDS011;58109;53.570;10.084;2024-03-23T03:45:53;34.77;;;4.57;;
70560;SDS011;58109;53.570;10.084;2024-03-23T03:48:19;41.80;;;5.33;;
70560;SDS011;58109;53.570;10.084;2024-03-23T03:50:45;28.93;;;4.73;;
70560;SDS011;58109;53.570;10.084;2024-03-23T03:53:10;41.67;;;5.50;;
70560;SDS011;58109;53.570;10.084;2024-03-23T03:55:36;29.23;;;3.80;;
70560;SDS011;58109;53.570;10.084;2024-03-23T03:58:01;48.40;;;5.50;;
70560;SDS011;58109;53.570;10.084;2024-03-23T04:00:29;33.70;;;5.43;;
70560;SDS011;58109;53.570;10.084;2024-03-23T04:02:55;36.50;;;4.30;;
70560;SDS011;58109;53.570;10.084;2024-03-23T04:05:23;44.60;;;5.53;;
70560;SDS011;58109;53.570;10.084;2024-03-23T04:07:48;42.47;;;5.03;;
70560;SDS011;58109;53.570;10.084;2024-03-23T04:10:16;32.97;;;5.67;;
70560;SDS011;58109;53.570;10.084;2024-03-23T04:12:42;28.87;;;4.40;;
70560;SDS011;58109;53.570;10.084;2024-03-23T04:15:08;28.83;;;4.57;;
70560;SDS011;58109;53.570;10.084;2024-03-23T04:17:34;28.77;;;5.40;;
70560;SDS011;58109;53.570;10.084;2024-03-23T04:20:00;34.90;;;4.77;;
70560;SDS011;58109;53.570;10.084;2024-03-23T04:22:28;30.03;;;3.90;;
70560;SDS011;58109;53.570;10.084;2024-03-23T04:24:54;40.60;;;4.90;;
70560;SDS011;58109;53.570;10.084;2024-03-23T04:27:23;31.20;;;4.40;;
70560;SDS011;58109;53.570;10.084;2024-03-23T04:29:51;36.97;;;4.33;;
70560;SDS011;58109;53.570;10.084;2024-03-23T04:32:17;29.13;;;5.07;;
70560;SDS011;58109;53.570;10.084;2024-03-23T04:34:43;30.53;;;5.60;;
70560;SDS011;58109;53.570;10.084;2024-03-23T04:37:09;37.00;;;4.83;;
70560;SDS011;58109;53.570;10.084;2024-03-23T04:39:38;32.13;;;4.13;;
70560;SDS011;58109;53.570;10.084;2024-03-23T04:42:06;34.00;;;4.20;;
70560;SDS011;58109;53.570;10.084;2024-03-23T04:44:32;39.43;;;5.37;;
70560;SDS011;58109;53.570;10.084;2024-03-23T04:47:00;23.53;;;4.40;;
70560;SDS011;58109;53.570;10.084;2024-03-23T04:49:25;31.83;;;4.40;;
70560;SDS011;58109;53.570;10.084;2024-03-23T04:51:51;51.70;;;5.50;;
70560;SDS011;58109;53.570;10.084;2024-03-23T04:54:16;43.57;;;5.27;;
70560;SDS011;58109;53.570;10.084;2024-03-23T04:56:42;39.97;;;5.00;;
70560;SDS011;58109;53.570;10.084;2024-03-23T04:59:07;34.03;;;4.23;;
70560;SDS011;58109;53.570;10.084;2024-03-23T05:01:34;35.87;;;5.87;;
70560;SDS011;58109;53.570;10.084;2024-03-23T05:03:59;38.87;;;4.87;;
70560;SDS011;58109;53.570;10.084;2024-03-23T05:06:25;37.47;;;4.70;;
70560;SDS011;58109;53.570;10.084;2024-03-23T05:08:51;40.17;;;4.93;;
70560;SDS011;58109;53.570;10.084;2024-03-23T05:11:16;19.27;;;3.60;;
70560;SDS011;58109;53.570;10.084;2024-03-23T05:13:42;39.23;;;5.03;;
70560;SDS011;58109;53.570;10.084;2024-03-23T05:16:10;34.20;;;5.23;;
70560;SDS011;58109;53.570;10.084;2024-03-23T05:18:35;41.07;;;5.60;;
70560;SDS011;58109;53.570;10.084;2024-03-23T05:21:01;41.23;;;5.90;;
70560;SDS011;58109;53.570;10.084;2024-03-23T05:23:26;32.67;;;5.60;;
70560;SDS011;58109;53.570;10.084;2024-03-23T05:25:53;44.57;;;5.00;;
70560;SDS011;58109;53.570;10.084;2024-03-23T05:28:18;42.50;;;6.60;;
70560;SDS011;58109;53.570;10.084;2024-03-23T05:30:49;44.47;;;4.93;;
70560;SDS011;58109;53.570;10.084;2024-03-23T05:33:15;23.57;;;3.80;;
70560;SDS011;58109;53.570;10.084;2024-03-23T05:35:43;42.17;;;5.27;;
70560;SDS011;58109;53.570;10.084;2024-03-23T05:38:11;45.90;;;5.73;;
70560;SDS011;58109;53.570;10.084;2024-03-23T05:40:36;32.33;;;5.03;;
70560;SDS011;58109;53.570;10.084;2024-03-23T05:43:05;36.67;;;5.80;;
70560;SDS011;58109;53.570;10.084;2024-03-23T05:45:30;27.10;;;5.03;;
70560;SDS011;58109;53.570;10.084;2024-03-23T05:47:56;43.70;;;6.00;;
70560;SDS011;58109;53.570;10.084;2024-03-23T05:50:24;31.20;;;5.17;;
70560;SDS011;58109;53.570;10.084;2024-03-23T05:52:49;47.57;;;4.97;;
70560;SDS011;58109;53.570;10.084;2024-03-23T05:55:17;37.40;;;5.90;;
70560;SDS011;58109;53.570;10.084;2024-03-23T05:57:45;30.00;;;3.87;;
70560;SDS011;58109;53.570;10.084;2024-03-23T06:00:10;38.27;;;4.43;;
70560;SDS011;58109;53.570;10.084;2024-03-23T06:02:41;53.70;;;5.57;;
70560;SDS011;58109;53.570;10.084;2024-03-23T06:05:13;38.73;;;7.30;;
70560;SDS011;58109;53.570;10.084;2024-03-23T06:07:39;27.80;;;6.43;;
70560;SDS011;58109;53.570;10.084;2024-03-23T06:10:06;31.90;;;4.47;;
70560;SDS011;58109;53.570;10.084;2024-03-23T06:12:32;43.40;;;4.87;;
70560;SDS011;58109;53.570;10.084;2024-03-23T06:14:58;33.40;;;5.07;;
70560;SDS011;58109;53.570;10.084;2024-03-23T06:17:23;37.17;;;4.27;;
70560;SDS011;58109;53.570;10.084;2024-03-23T06:19:49;31.77;;;4.70;;
70560;SDS011;58109;53.570;10.084;2024-03-23T06:22:14;28.83;;;4.37;;
70560;SDS011;58109;53.570;10.084;2024-03-23T06:24:40;27.83;;;5.00;;
70560;SDS011;58109;53.570;10.084;2024-03-23T06:27:05;28.60;;;5.00;;
70560;SDS011;58109;53.570;10.084;2024-03-23T06:29:33;42.40;;;5.83;;
70560;SDS011;58109;53.570;10.084;2024-03-23T06:31:59;31.43;;;4.70;;
70560;SDS011;58109;53.570;10.084;2024-03-23T06:34:24;25.53;;;4.43;;
70560;SDS011;58109;53.570;10.084;2024-03-23T06:36:50;44.57;;;5.40;;
70560;SDS011;58109;53.570;10.084;2024-03-23T06:39:15;52.53;;;6.17;;
70560;SDS011;58109;53.570;10.084;2024-03-23T06:42:02;46.80;;;4.90;;
70560;SDS011;58109;53.570;10.084;2024-03-23T06:44:27;33.83;;;3.93;;
70560;SDS011;58109;53.570;10.084;2024-03-23T06:46:52;32.73;;;4.97;;
70560;SDS011;58109;53.570;10.084;2024-03-23T06:49:17;37.33;;;4.47;;
70560;SDS011;58109;53.570;10.084;2024-03-23T06:51:44;33.60;;;5.60;;
70560;SDS011;58109;53.570;10.084;2024-03-23T06:54:10;26.33;;;3.67;;
70560;SDS011;58109;53.570;10.084;2024-03-23T06:56:37;43.67;;;5.60;;
70560;SDS011;58109;53.570;10.084;2024-03-23T06:59:03;33.03;;;4.60;;
70560;SDS011;58109;53.570;10.084;2024-03-23T07:01:28;34.67;;;5.20;;
70560;SDS011;58109;53.570;10.084;2024-03-23T07:03:54;39.20;;;4.30;;
70560;SDS011;58109;53.570;10.084;2024-03-23T07:06:20;30.00;;;4.70;;
70560;SDS011;58109;53.570;10.084;2024-03-23T07:08:45;24.30;;;4.03;;
70560;SDS011;58109;53.570;10.084;2024-03-23T07:11:11;40.07;;;5.13;;
70560;SDS011;58109;53.570;10.084;2024-03-23T07:13:41;31.73;;;4.40;;
70560;SDS011;58109;53.570;10.084;2024-03-23T07:16:09;39.30;;;4.27;;
70560;SDS011;58109;53.570;10.084;2024-03-23T07:18:34;38.77;;;4.17;;
70560;SDS011;58109;53.570;10.084;2024-03-23T07:20:59;38.77;;;4.10;;
70560;SDS011;58109;53.570;10.084;2024-03-23T07:23:25;31.40;;;4.60;;
70560;SDS011;58109;53.570;10.084;2024-03-23T07:26:00;37.27;;;4.43;;
70560;SDS011;58109;53.570;10.084;2024-03-23T07:28:32;31.53;;;4.13;;
70560;SDS011;58109;53.570;10.084;2024-03-23T07:31:09;41.80;;;4.30;;
70560;SDS011;58109;53.570;10.084;2024-03-23T07:33:45;33.67;;;4.80;;
70560;SDS011;58109;53.570;10.084;2024-03-23T07:36:11;39.60;;;4.70;;
70560;SDS011;58109;53.570;10.084;2024-03-23T07:38:36;36.47;;;4.30;;
70560;SDS011;58109;53.570;10.084;2024-03-23T07:41:05;33.80;;;4.40;;
70560;SDS011;58109;53.570;10.084;2024-03-23T07:43:31;31.77;;;4.77;;
70560;SDS011;58109;53.570;10.084;2024-03-23T07:45:57;36.67;;;5.10;;
70560;SDS011;58109;53.570;10.084;2024-03-23T07:48:23;36.93;;;3.47;;
70560;SDS011;58109;53.570;10.084;2024-03-23T07:51:01;21.00;;;3.83;;
70560;SDS011;58109;53.570;10.084;2024-03-23T07:53:33;29.40;;;3.57;;
70560;SDS011;58109;53.570;10.084;2024-03-23T07:56:01;28.60;;;4.50;;
70560;SDS011;58109;53.570;10.084;2024-03-23T07:58:31;27.30;;;3.90;;
70560;SDS011;58109;53.570;10.084;2024-03-23T08:00:56;31.37;;;3.87;;
70560;SDS011;58109;53.570;10.084;2024-03-23T08:03:29;27.20;;;4.43;;
70560;SDS011;58109;53.570;10.084;2024-03-23T08:05:54;31.83;;;4.30;;
70560;SDS011;58109;53.570;10.084;2024-03-23T08:08:19;29.73;;;5.20;;
70560;SDS011;58109;53.570;10.084;2024-03-23T08:10:51;33.67;;;4.30;;
70560;SDS011;58109;53.570;10.084;2024-03-23T08:13:17;37.43;;;4.53;;
70560;SDS011;58109;53.570;10.084;2024-03-23T08:15:45;33.00;;;6.00;;
70560;SDS011;58109;53.570;10.084;2024-03-23T08:18:12;30.60;;;3.90;;
70560;SDS011;58109;53.570;10.084;2024-03-23T08:20:38;31.03;;;4.57;;
70560;SDS011;58109;53.570;10.084;2024-03-23T08:23:04;38.80;;;4.77;;
70560;SDS011;58109;53.570;10.084;2024-03-23T08:25:31;18.53;;;4.17;;
70560;SDS011;58109;53.570;10.084;2024-03-23T08:27:57;22.07;;;3.67;;
70560;SDS011;58109;53.570;10.084;2024-03-23T08:30:22;27.33;;;4.47;;
70560;SDS011;58109;53.570;10.084;2024-03-23T08:32:47;28.43;;;4.23;;
70560;SDS011;58109;53.570;10.084;2024-03-23T08:35:15;24.97;;;4.30;;
70560;SDS011;58109;53.570;10.084;2024-03-23T08:37:41;35.23;;;4.10;;
70560;SDS011;58109;53.570;10.084;2024-03-23T08:40:06;40.63;;;5.03;;
70560;SDS011;58109;53.570;10.084;2024-03-23T08:42:33;42.20;;;5.23;;
70560;SDS011;58109;53.570;10.084;2024-03-23T08:44:59;22.13;;;3.80;;
70560;SDS011;58109;53.570;10.084;2024-03-23T08:47:24;30.63;;;4.80;;
70560;SDS011;58109;53.570;10.084;2024-03-23T08:49:52;50.43;;;5.20;;
70560;SDS011;58109;53.570;10.084;2024-03-23T08:52:20;27.93;;;3.80;;
70560;SDS011;58109;53.570;10.084;2024-03-23T08:54:48;23.00;;;4.03;;
70560;SDS011;58109;53.570;10.084;2024-03-23T08:57:13;27.90;;;3.67;;
70560;SDS011;58109;53.570;10.084;2024-03-23T08:59:41;32.83;;;4.87;;
70560;SDS011;58109;53.570;10.084;2024-03-23T09:02:06;29.57;;;4.00;;
70560;SDS011;58109;53.570;10.084;2024-03-23T09:04:31;31.10;;;5.30;;
70560;SDS011;58109;53.570;10.084;2024-03-23T09:06:57;23.30;;;3.63;;
70560;SDS011;58109;53.570;10.084;2024-03-23T09:09:25;20.73;;;3.60;;
70560;SDS011;58109;53.570;10.084;2024-03-23T09:11:50;16.33;;;3.37;;
70560;SDS011;58109;53.570;10.084;2024-03-23T09:14:18;30.27;;;3.40;;
70560;SDS011;58109;53.570;10.084;2024-03-23T09:16:44;27.73;;;3.57;;
70560;SDS011;58109;53.570;10.084;2024-03-23T09:19:09;22.63;;;3.20;;
70560;SDS011;58109;53.570;10.084;2024-03-23T09:21:37;31.17;;;3.60;;
70560;SDS011;58109;53.570;10.084;2024-03-23T09:24:02;24.03;;;3.73;;
70560;SDS011;58109;53.570;10.084;2024-03-23T09:26:31;22.63;;;3.80;;
70560;SDS011;58109;53.570;10.084;2024-03-23T09:28:56;14.17;;;2.80;;
70560;SDS011;58109;53.570;10.084;2024-03-23T09:31:22;21.20;;;2.43;;
70560;SDS011;58109;53.570;10.084;2024-03-23T09:33:49;16.07;;;2.80;;
70560;SDS011;58109;53.570;10.084;2024-03-23T09:36:15;19.13;;;3.40;;
70560;SDS011;58109;53.570;10.084;2024-03-23T09:38:41;16.00;;;4.03;;
70560;SDS011;58109;53.570;10.084;2024-03-23T09:41:07;19.70;;;3.90;;
70560;SDS011;58109;53.570;10.084;2024-03-23T09:43:33;18.97;;;3.20;;
70560;SDS011;58109;53.570;10.084;2024-03-23T09:45:58;23.33;;;3.07;;
70560;SDS011;58109;53.570;10.084;2024-03-23T09:48:23;20.73;;;3.67;;
70560;SDS011;58109;53.570;10.084;2024-03-23T09:50:49;19.07;;;3.97;;
70560;SDS011;58109;53.570;10.084;2024-03-23T09:53:15;18.67;;;2.70;;
70560;SDS011;58109;53.570;10.084;2024-03-23T09:55:41;20.13;;;3.00;;
70560;SDS011;58109;53.570;10.084;2024-03-23T09:58:08;13.90;;;2.53;;
70560;SDS011;58109;53.570;10.084;2024-03-23T10:00:36;19.60;;;3.13;;
70560;SDS011;58109;53.570;10.084;2024-03-23T10:03:02;32.37;;;2.60;;
70560;SDS011;58109;53.570;10.084;2024-03-23T10:05:30;20.33;;;3.37;;
70560;SDS011;58109;53.570;10.084;2024-03-23T10:10:39;18.37;;;3.30;;
70560;SDS011;58109;53.570;10.084;2024-03-23T10:13:05;22.47;;;3.47;;
70560;SDS011;58109;53.570;10.084;2024-03-23T10:15:30;16.80;;;3.23;;
70560;SDS011;58109;53.570;10.084;2024-03-23T10:17:59;10.80;;;2.23;;
70560;SDS011;58109;53.570;10.084;2024-03-23T10:20:42;11.83;;;2.27;;
70560;SDS011;58109;53.570;10.084;2024-03-23T10:23:15;18.47;;;3.43;;
70560;SDS011;58109;53.570;10.084;2024-03-23T10:25:41;14.30;;;2.73;;
70560;SDS011;58109;53.570;10.084;2024-03-23T10:28:06;10.10;;;2.70;;
70560;SDS011;58109;53.570;10.084;2024-03-23T10:30:32;15.93;;;3.80;;
70560;SDS011;58109;53.570;10.084;2024-03-23T10:33:18;30.43;;;3.10;;
70560;SDS011;58109;53.570;10.084;2024-03-23T10:35:45;15.33;;;2.70;;
70560;SDS011;58109;53.570;10.084;2024-03-23T10:38:12;14.50;;;3.83;;
70560;SDS011;58109;53.570;10.084;2024-03-23T10:40:39;18.93;;;2.63;;
70560;SDS011;58109;53.570;10.084;2024-03-23T10:43:05;16.03;;;3.10;;
70560;SDS011;58109;53.570;10.084;2024-03-23T10:45:31;14.43;;;3.03;;
70560;SDS011;58109;53.570;10.084;2024-03-23T10:47:59;22.17;;;2.40;;
70560;SDS011;58109;53.570;10.084;2024-03-23T10:50:24;10.50;;;2.53;;
70560;SDS011;58109;53.570;10.084;2024-03-23T10:52:50;21.17;;;2.70;;
70560;SDS011;58109;53.570;10.084;2024-03-23T10:55:18;16.10;;;2.50;;
70560;SDS011;58109;53.570;10.084;2024-03-23T10:57:50;17.43;;;3.10;;
70560;SDS011;58109;53.570;10.084;2024-03-23T11:00:17;22.53;;;3.93;;
70560;SDS011;58109;53.570;10.084;2024-03-23T11:02:43;24.90;;;2.70;;
70560;SDS011;58109;53.570;10.084;2024-03-23T11:05:27;27.33;;;3.30;;
70560;SDS011;58109;53.570;10.084;2024-03-23T11:07:54;15.60;;;3.00;;
70560;SDS011;58109;53.570;10.084;2024-03-23T11:10:29;16.30;;;3.00;;
70560;SDS011;58109;53.570;10.084;2024-03-23T11:12:55;23.67;;;3.50;;
70560;SDS011;58109;53.570;10.084;2024-03-23T11:15:21;18.97;;;3.43;;
70560;SDS011;58109;53.570;10.084;2024-03-23T11:18:05;8.90;;;2.80;;
70560;SDS011;58109;53.570;10.084;2024-03-23T11:20:33;18.87;;;2.70;;
70560;SDS011;58109;53.570;10.084;2024-03-23T11:23:01;29.17;;;4.20;;
70560;SDS011;58109;53.570;10.084;2024-03-23T11:25:27;24.30;;;3.43;;
70560;SDS011;58109;53.570;10.084;2024-03-23T11:27:54;19.07;;;3.23;;
70560;SDS011;58109;53.570;10.084;2024-03-23T11:30:27;11.60;;;2.67;;
70560;SDS011;58109;53.570;10.084;2024-03-23T11:32:54;15.93;;;2.80;;
70560;SDS011;58109;53.570;10.084;2024-03-23T11:40:41;13.47;;;3.00;;
70560;SDS011;58109;53.570;10.084;2024-03-23T11:43:08;7.10;;;2.40;;
70560;SDS011;58109;53.570;10.084;2024-03-23T11:45:36;8.07;;;1.90;;
70560;SDS011;58109;53.570;10.084;2024-03-23T11:48:08;17.03;;;2.00;;
70560;SDS011;58109;53.570;10.084;2024-03-23T11:50:46;20.00;;;2.30;;
70560;SDS011;58109;53.570;10.084;2024-03-23T11:53:20;9.63;;;2.20;;
70560;SDS011;58109;53.570;10.084;2024-03-23T11:55:50;16.40;;;2.07;;
70560;SDS011;58109;53.570;10.084;2024-03-23T11:58:20;10.90;;;2.30;;
70560;SDS011;58109;53.570;10.084;2024-03-23T12:00:56;21.90;;;2.70;;
70560;SDS011;58109;53.570;10.084;2024-03-23T12:03:23;17.50;;;2.37;;
70560;SDS011;58109;53.570;10.084;2024-03-23T12:05:53;10.90;;;1.93;;
70560;SDS011;58109;53.570;10.084;2024-03-23T12:10:53;9.13;;;1.73;;
70560;SDS011;58109;53.570;10.084;2024-03-23T12:13:19;11.40;;;1.70;;
70560;SDS011;58109;53.570;10.084;2024-03-23T12:15:46;5.03;;;1.63;;
70560;SDS011;58109;53.570;10.084;2024-03-23T12:18:15;4.60;;;1.23;;
70560;SDS011;58109;53.570;10.084;2024-03-23T12:20:43;3.70;;;1.07;;
70560;SDS011;58109;53.570;10.084;2024-03-23T12:23:09;4.30;;;1.03;;
70560;SDS011;58109;53.570;10.084;2024-03-23T12:25:38;16.30;;;1.47;;
70560;SDS011;58109;53.570;10.084;2024-03-23T12:28:04;6.03;;;1.03;;
70560;SDS011;58109;53.570;10.084;2024-03-23T12:30:34;7.20;;;1.00;;
70560;SDS011;58109;53.570;10.084;2024-03-23T12:33:01;2.33;;;1.00;;
70560;SDS011;58109;53.570;10.084;2024-03-23T12:35:26;5.43;;;1.30;;
70560;SDS011;58109;53.570;10.084;2024-03-23T12:37:54;5.70;;;1.43;;
70560;SDS011;58109;53.570;10.084;2024-03-23T12:40:22;6.67;;;1.23;;
70560;SDS011;58109;53.570;10.084;2024-03-23T12:42:47;8.67;;;1.60;;
70560;SDS011;58109;53.570;10.084;2024-03-23T12:45:13;9.47;;;1.93;;
70560;SDS011;58109;53.570;10.084;2024-03-23T12:47:41;35.33;;;2.30;;
70560;SDS011;58109;53.570;10.084;2024-03-23T12:50:06;6.77;;;1.20;;
70560;SDS011;58109;53.570;10.084;2024-03-23T12:52:34;2.30;;;0.70;;
70560;SDS011;58109;53.570;10.084;2024-03-23T12:55:00;1.00;;;0.67;;
70560;SDS011;58109;53.570;10.084;2024-03-23T12:57:26;3.20;;;0.80;;
70560;SDS011;58109;53.570;10.084;2024-03-23T12:59:51;1.90;;;0.70;;
70560;SDS011;58109;53.570;10.084;2024-03-23T13:02:20;2.23;;;0.70;;
70560;SDS011;58109;53.570;10.084;2024-03-23T13:04:50;1.23;;;0.70;;
70560;SDS011;58109;53.570;10.084;2024-03-23T13:07:16;5.83;;;0.83;;
70560;SDS011;58109;53.570;10.084;2024-03-23T13:09:42;1.77;;;0.80;;
70560;SDS011;58109;53.570;10.084;2024-03-23T13:12:10;2.07;;;0.80;;
70560;SDS011;58109;53.570;10.084;2024-03-23T13:14:37;7.63;;;1.20;;
70560;SDS011;58109;53.570;10.084;2024-03-23T13:17:03;1.67;;;1.00;;
70560;SDS011;58109;53.570;10.084;2024-03-23T13:19:33;6.00;;;1.20;;
70560;SDS011;58109;53.570;10.084;2024-03-23T13:21:59;4.47;;;1.13;;
70560;SDS011;58109;53.570;10.084;2024-03-23T13:24:25;3.47;;;0.87;;
70560;SDS011;58109;53.570;10.084;2024-03-23T13:26:54;5.60;;;0.90;;
70560;SDS011;58109;53.570;10.084;2024-03-23T13:29:23;10.67;;;1.47;;
70560;SDS011;58109;53.570;10.084;2024-03-23T13:31:49;4.50;;;1.17;;
70560;SDS011;58109;53.570;10.084;2024-03-23T13:34:15;8.47;;;1.77;;
70560;SDS011;58109;53.570;10.084;2024-03-23T13:36:41;7.00;;;1.33;;
70560;SDS011;58109;53.570;10.084;2024-03-23T13:39:06;7.13;;;1.30;;
70560;SDS011;58109;53.570;10.084;2024-03-23T13:41:39;18.30;;;2.83;;
70560;SDS011;58109;53.570;10.084;2024-03-23T13:44:06;6.03;;;1.27;;
70560;SDS011;58109;53.570;10.084;2024-03-23T13:46:32;8.10;;;1.47;;
70560;SDS011;58109;53.570;10.084;2024-03-23T13:48:59;10.53;;;2.07;;
70560;SDS011;58109;53.570;10.084;2024-03-23T13:51:25;6.83;;;1.80;;
70560;SDS011;58109;53.570;10.084;2024-03-23T13:53:55;5.87;;;1.37;;
70560;SDS011;58109;53.570;10.084;2024-03-23T13:56:21;4.33;;;1.67;;
70560;SDS011;58109;53.570;10.084;2024-03-23T13:58:47;11.10;;;1.60;;
70560;SDS011;58109;53.570;10.084;2024-03-23T14:01:16;5.47;;;1.67;;
70560;SDS011;58109;53.570;10.084;2024-03-23T14:03:44;3.43;;;1.20;;
70560;SDS011;58109;53.570;10.084;2024-03-23T14:06:09;6.07;;;1.20;;
70560;SDS011;58109;53.570;10.084;2024-03-23T14:08:35;9.23;;;1.00;;
70560;SDS011;58109;53.570;10.084;2024-03-23T14:11:07;1.83;;;0.77;;
70560;SDS011;58109;53.570;10.084;2024-03-23T14:13:33;5.07;;;1.47;;
70560;SDS011;58109;53.570;10.084;2024-03-23T14:15:59;7.73;;;1.03;;
70560;SDS011;58109;53.570;10.084;2024-03-23T14:18:25;4.73;;;0.90;;
70560;SDS011;58109;53.570;10.084;2024-03-23T14:20:56;6.50;;;1.20;;
70560;SDS011;58109;53.570;10.084;2024-03-23T14:23:23;3.83;;;1.67;;
70560;SDS011;58109;53.570;10.084;2024-03-23T14:25:52;3.20;;;1.27;;
70560;SDS011;58109;53.570;10.084;2024-03-23T14:28:18;3.77;;;1.33;;
70560;SDS011;58109;53.570;10.084;2024-03-23T14:30:43;2.87;;;1.17;;
70560;SDS011;58109;53.570;10.084;2024-03-23T14:33:09;14.07;;;1.37;;
70560;SDS011;58109;53.570;10.084;2024-03-23T14:35:34;5.90;;;1.50;;
70560;SDS011;58109;53.570;10.084;2024-03-23T14:38:01;4.77;;;1.20;;
70560;SDS011;58109;53.570;10.084;2024-03-23T14:40:27;10.10;;;1.40;;
70560;SDS011;58109;53.570;10.084;2024-03-23T14:42:52;5.57;;;1.90;;
70560;SDS011;58109;53.570;10.084;2024-03-23T14:45:23;5.80;;;1.23;;
70560;SDS011;58109;53.570;10.084;2024-03-23T14:47:50;7.63;;;1.80;;
70560;SDS011;58109;53.570;10.084;2024-03-23T14:50:16;12.07;;;2.40;;
70560;SDS011;58109;53.570;10.084;2024-03-23T14:52:44;8.27;;;2.10;;
70560;SDS011;58109;53.570;10.084;2024-03-23T14:55:10;6.93;;;1.10;;
70560;SDS011;58109;53.570;10.084;2024-03-23T14:57:39;6.40;;;1.30;;
70560;SDS011;58109;53.570;10.084;2024-03-23T15:00:06;4.97;;;1.10;;
70560;SDS011;58109;53.570;10.084;2024-03-23T15:02:32;15.27;;;1.70;;
70560;SDS011;58109;53.570;10.084;2024-03-23T15:04:58;6.97;;;1.67;;
70560;SDS011;58109;53.570;10.084;2024-03-23T15:07:24;3.90;;;1.47;;
70560;SDS011;58109;53.570;10.084;2024-03-23T15:09:49;2.10;;;0.83;;
70560;SDS011;58109;53.570;10.084;2024-03-23T15:12:15;6.10;;;1.30;;
70560;SDS011;58109;53.570;10.084;2024-03-23T15:14:40;4.83;;;1.27;;
70560;SDS011;58109;53.570;10.084;2024-03-23T15:17:05;5.53;;;1.10;;
70560;SDS011;58109;53.570;10.084;2024-03-23T15:19:34;3.60;;;1.40;;
70560;SDS011;58109;53.570;10.084;2024-03-23T15:22:04;5.83;;;1.33;;
70560;SDS011;58109;53.570;10.084;2024-03-23T15:24:30;1.40;;;1.00;;
70560;SDS011;58109;53.570;10.084;2024-03-23T15:26:56;1.37;;;0.80;;